Time;durP1;ratioP1;P1;durP2;ratioP2;P2;SDS_P1;SDS_P2;PMS_P1;PMS_P2;Temp;Humidity;BMP_temperature;BMP_pressure;BME280_temperature;BME280_humidity;BME280_pressure;Samples;Min_cycle;Max_cycle;Signal;HPM_P1;HPM_P2
2022/04/06 00:01:58;;;;;;;3.63;2.93;;;;;;;;;;5093909;28;20480;-70
2022/04/06 00:04:26;;;;;;;4.53;3.20;;;;;;;;;;5093454;28;20446;-70
2022/04/06 00:06:53;;;;;;;3.00;2.60;;;;;;;;;;5094251;28;20505;-70
2022/04/06 00:09:21;;;;;;;3.33;2.70;;;;;;;;;;5094243;28;20463;-70
2022/04/06 00:11:48;;;;;;;3.93;2.90;;;;;;;;;;5093982;28;20447;-70
2022/04/06 00:14:16;;;;;;;3.43;2.80;;;;;;;;;;5093837;28;20454;-70
2022/04/06 00:16:43;;;;;;;3.30;3.00;;;;;;;;;;5094134;28;20443;-69
2022/04/06 00:19:10;;;;;;;4.30;2.80;;;;;;;;;;5094041;28;20478;-69
2022/04/06 00:21:39;;;;;;;3.33;3.00;;;;;;;;;;5093956;28;20443;-70
2022/04/06 00:24:06;;;;;;;2.80;2.27;;;;;;;;;;5093744;28;20829;-69
2022/04/06 00:26:35;;;;;;;2.90;2.00;;;;;;;;;;5093730;28;20493;-69
2022/04/06 00:29:02;;;;;;;3.57;2.50;;;;;;;;;;5093626;28;20927;-69
2022/04/06 00:31:30;;;;;;;3.10;2.23;;;;;;;;;;5093341;28;20447;-69
2022/04/06 00:33:57;;;;;;;2.93;2.63;;;;;;;;;;5093545;28;20822;-69
2022/04/06 00:36:24;;;;;;;2.53;2.00;;;;;;;;;;5093408;28;20447;-70
2022/04/06 00:38:52;;;;;;;2.63;2.13;;;;;;;;;;5093597;28;20824;-70
2022/04/06 00:41:20;;;;;;;3.57;2.50;;;;;;;;;;5093484;28;20451;-70
2022/04/06 00:44:06;;;;;;;2.27;1.80;;;;;;;;;;5093466;28;20982;-70
2022/04/06 00:46:33;;;;;;;2.13;1.60;;;;;;;;;;5093566;28;20802;-70
2022/04/06 00:49:00;;;;;;;2.30;1.83;;;;;;;;;;5093583;28;20473;-70
2022/04/06 00:51:27;;;;;;;2.37;1.70;;;;;;;;;;5093529;28;20451;-70
2022/04/06 00:53:56;;;;;;;2.93;2.20;;;;;;;;;;5092844;28;20458;-70
2022/04/06 00:56:24;;;;;;;2.80;2.10;;;;;;;;;;5093521;28;20450;-70
2022/04/06 00:58:51;;;;;;;2.33;1.70;;;;;;;;;;5093311;28;20835;-70
2022/04/06 01:01:18;;;;;;;2.50;1.90;;;;;;;;;;5093412;28;20453;-70
2022/04/06 01:03:45;;;;;;;5.00;1.87;;;;;;;;;;5093199;28;20507;-70
2022/04/06 01:06:12;;;;;;;2.70;1.87;;;;;;;;;;5092689;28;20483;-70
2022/04/06 01:08:39;;;;;;;2.17;1.83;;;;;;;;;;5093242;28;20504;-70
2022/04/06 01:11:08;;;;;;;2.20;1.80;;;;;;;;;;5092886;28;20461;-69
2022/04/06 01:13:35;;;;;;;2.40;1.83;;;;;;;;;;5093115;28;20450;-70
2022/04/06 01:16:03;;;;;;;2.20;1.90;;;;;;;;;;5093278;28;20454;-70
2022/04/06 01:18:32;;;;;;;2.10;1.73;;;;;;;;;;5093299;28;21011;-70
2022/04/06 01:20:59;;;;;;;2.57;1.50;;;;;;;;;;5093031;28;20508;-70
2022/04/06 01:23:28;;;;;;;1.70;1.40;;;;;;;;;;5093001;28;20458;-70
2022/04/06 01:25:55;;;;;;;4.30;2.20;;;;;;;;;;5092935;28;20825;-70
2022/04/06 01:28:22;;;;;;;2.27;1.73;;;;;;;;;;5093087;28;20474;-70
2022/04/06 01:30:49;;;;;;;7.13;1.87;;;;;;;;;;5093007;28;20473;-70
2022/04/06 01:33:17;;;;;;;3.97;2.30;;;;;;;;;;5092915;28;20447;-70
2022/04/06 01:35:44;;;;;;;2.03;1.63;;;;;;;;;;5092935;28;20951;-70
2022/04/06 01:38:11;;;;;;;2.50;1.90;;;;;;;;;;5092870;28;20489;-70
2022/04/06 01:40:39;;;;;;;2.93;2.30;;;;;;;;;;5092913;28;20458;-70
2022/04/06 01:43:06;;;;;;;3.47;2.03;;;;;;;;;;5092442;28;20459;-70
2022/04/06 01:45:34;;;;;;;2.13;1.93;;;;;;;;;;5092880;28;20450;-70
2022/04/06 01:48:01;;;;;;;2.20;1.60;;;;;;;;;;5092307;28;20486;-70
2022/04/06 01:53:13;;;;;;;3.23;2.27;;;;;;;;;;5092652;28;20934;-70
2022/04/06 01:55:41;;;;;;;2.20;1.70;;;;;;;;;;5092740;28;20850;-70
2022/04/06 01:58:08;;;;;;;4.33;1.93;;;;;;;;;;5092614;28;20475;-70
2022/04/06 02:00:35;;;;;;;3.03;2.17;;;;;;;;;;5093177;28;20446;-70
2022/04/06 02:03:03;;;;;;;3.30;2.00;;;;;;;;;;5092719;28;20450;-70
2022/04/06 02:05:32;;;;;;;2.23;2.03;;;;;;;;;;5092600;28;20833;-70
2022/04/06 02:08:00;;;;;;;8.77;1.97;;;;;;;;;;5092488;28;20486;-70
2022/04/06 02:10:28;;;;;;;3.17;2.20;;;;;;;;;;5092803;28;20967;-70
2022/04/06 02:12:58;;;;;;;2.90;2.40;;;;;;;;;;5092740;28;20461;-70
2022/04/06 02:15:25;;;;;;;5.33;2.23;;;;;;;;;;5092510;28;20545;-70
2022/04/06 02:17:52;;;;;;;3.07;2.20;;;;;;;;;;5092075;28;20485;-70
2022/04/06 02:20:19;;;;;;;3.60;1.80;;;;;;;;;;5092641;28;20462;-70
2022/04/06 02:22:47;;;;;;;2.80;1.90;;;;;;;;;;5092212;28;20841;-70
2022/04/06 02:25:15;;;;;;;12.03;7.50;;;;;;;;;;5092199;28;20971;-70
2022/04/06 02:27:46;;;;;;;8.47;5.27;;;;;;;;;;5093108;28;20481;-70
2022/04/06 02:30:14;;;;;;;4.40;2.87;;;;;;;;;;5096153;28;20920;-70
2022/04/06 02:32:42;;;;;;;9.23;2.40;;;;;;;;;;5096052;28;20458;-70
2022/04/06 02:35:09;;;;;;;2.77;2.30;;;;;;;;;;5095848;28;20454;-70
2022/04/06 02:37:36;;;;;;;2.90;2.40;;;;;;;;;;5096074;28;20442;-70
2022/04/06 02:40:04;;;;;;;25.37;16.53;;;;;;;;;;5095845;28;20944;-70
2022/04/06 02:42:31;;;;;;;8.70;6.30;;;;;;;;;;5095949;28;20489;-70
2022/04/06 02:44:58;;;;;;;4.77;2.90;;;;;;;;;;5095689;28;20473;-70
2022/04/06 02:47:27;;;;;;;3.23;2.40;;;;;;;;;;5095903;28;20890;-70
2022/04/06 02:49:54;;;;;;;5.07;3.10;;;;;;;;;;5095816;28;20451;-70
2022/04/06 02:52:22;;;;;;;6.30;2.63;;;;;;;;;;5094969;28;20454;-70
2022/04/06 02:54:49;;;;;;;3.13;2.70;;;;;;;;;;5095443;28;20827;-70
2022/04/06 02:57:16;;;;;;;9.57;6.83;;;;;;;;;;5095630;28;20974;-70
2022/04/06 02:59:43;;;;;;;13.80;9.10;;;;;;;;;;5095550;28;20467;-70
2022/04/06 03:02:10;;;;;;;4.63;3.97;;;;;;;;;;5094977;28;20844;-70
2022/04/06 03:04:39;;;;;;;3.70;3.23;;;;;;;;;;5095297;28;20879;-70
2022/04/06 03:07:06;;;;;;;4.17;3.20;;;;;;;;;;5095301;28;20482;-70
2022/04/06 03:09:33;;;;;;;26.00;15.00;;;;;;;;;;5095206;28;20475;-70
2022/04/06 03:12:00;;;;;;;26.73;17.33;;;;;;;;;;5095326;28;20830;-70
2022/04/06 03:14:27;;;;;;;4.90;3.83;;;;;;;;;;5095237;28;20986;-70
2022/04/06 03:16:54;;;;;;;4.50;3.70;;;;;;;;;;5095168;28;20443;-70
2022/04/06 03:19:21;;;;;;;4.17;3.40;;;;;;;;;;5095189;28;20471;-70
2022/04/06 03:21:50;;;;;;;3.97;3.57;;;;;;;;;;5095045;28;20466;-70
2022/04/06 03:24:17;;;;;;;6.13;3.80;;;;;;;;;;5095021;28;20451;-70
2022/04/06 03:26:44;;;;;;;4.90;3.60;;;;;;;;;;5095111;28;20451;-70
2022/04/06 03:29:11;;;;;;;4.30;3.47;;;;;;;;;;5094897;28;20471;-70
2022/04/06 03:31:38;;;;;;;5.03;3.77;;;;;;;;;;5094523;28;20455;-70
2022/04/06 03:34:06;;;;;;;5.43;3.53;;;;;;;;;;5094543;28;20461;-70
2022/04/06 03:36:33;;;;;;;3.90;3.40;;;;;;;;;;5094463;28;20451;-70
2022/04/06 03:39:01;;;;;;;10.00;8.83;;;;;;;;;;5093870;28;20473;-70
2022/04/06 03:41:28;;;;;;;10.03;6.63;;;;;;;;;;5094988;28;20447;-70
2022/04/06 03:43:55;;;;;;;9.53;6.60;;;;;;;;;;5094660;28;20458;-70
2022/04/06 03:46:23;;;;;;;4.00;3.30;;;;;;;;;;5094596;28;20458;-70
2022/04/06 03:48:50;;;;;;;6.40;3.70;;;;;;;;;;5094282;28;20486;-70
2022/04/06 03:51:17;;;;;;;2.97;2.67;;;;;;;;;;5094583;28;20461;-70
2022/04/06 03:53:45;;;;;;;3.90;3.40;;;;;;;;;;5094232;28;20486;-70
2022/04/06 03:56:13;;;;;;;4.97;3.37;;;;;;;;;;5094421;28;20462;-70
2022/04/06 03:58:40;;;;;;;3.57;3.20;;;;;;;;;;5094336;28;20469;-70
2022/04/06 04:01:07;;;;;;;5.53;3.63;;;;;;;;;;5094202;28;20449;-70
2022/04/06 04:03:34;;;;;;;4.10;3.40;;;;;;;;;;5094368;28;20829;-69
2022/04/06 04:06:01;;;;;;;3.03;2.73;;;;;;;;;;5094289;28;20523;-70
2022/04/06 04:08:28;;;;;;;3.23;2.93;;;;;;;;;;5093835;28;20491;-70
2022/04/06 04:10:56;;;;;;;7.83;3.40;;;;;;;;;;5094129;28;20451;-70
2022/04/06 04:13:24;;;;;;;4.60;2.90;;;;;;;;;;5093810;28;20455;-70
2022/04/06 04:15:51;;;;;;;5.80;3.20;;;;;;;;;;5093819;28;20447;-70
2022/04/06 04:18:18;;;;;;;9.13;3.07;;;;;;;;;;5093978;28;20475;-70
2022/04/06 04:20:46;;;;;;;3.60;3.13;;;;;;;;;;5094092;28;20446;-70
2022/04/06 04:23:13;;;;;;;4.00;3.50;;;;;;;;;;5093842;28;20462;-70
2022/04/06 04:25:40;;;;;;;4.97;4.10;;;;;;;;;;5093932;28;20454;-70
2022/04/06 04:28:07;;;;;;;5.53;4.10;;;;;;;;;;5093625;28;20495;-70
2022/04/06 04:30:36;;;;;;;6.73;4.40;;;;;;;;;;5094038;28;20454;-70
2022/04/06 04:33:03;;;;;;;3.73;3.43;;;;;;;;;;5094024;28;20454;-70
2022/04/06 04:35:30;;;;;;;8.27;4.27;;;;;;;;;;5093674;28;20454;-70
2022/04/06 04:37:57;;;;;;;7.60;5.20;;;;;;;;;;5093657;28;20840;-70
2022/04/06 04:40:24;;;;;;;4.23;3.60;;;;;;;;;;5093951;28;20858;-70
2022/04/06 04:42:53;;;;;;;6.37;5.73;;;;;;;;;;5093344;28;20449;-70
2022/04/06 04:45:20;;;;;;;8.80;5.13;;;;;;;;;;5093570;28;20459;-70
2022/04/06 04:47:48;;;;;;;8.43;6.23;;;;;;;;;;5093030;28;20482;-70
2022/04/06 04:50:19;;;;;;;14.33;6.80;;;;;;;;;;5093469;28;20924;-70
2022/04/06 04:52:46;;;;;;;9.37;8.40;;;;;;;;;;5092916;28;20463;-69
2022/04/06 04:55:13;;;;;;;13.37;8.40;;;;;;;;;;5093116;28;20469;-70
2022/04/06 04:57:40;;;;;;;13.73;8.30;;;;;;;;;;5093444;28;20447;-70
2022/04/06 05:00:09;;;;;;;5.27;4.70;;;;;;;;;;5093460;28;20804;-70
2022/04/06 05:02:37;;;;;;;4.00;3.30;;;;;;;;;;5093432;28;20457;-70
2022/04/06 05:05:06;;;;;;;3.30;3.00;;;;;;;;;;5093079;28;20504;-70
2022/04/06 05:07:37;;;;;;;3.53;2.83;;;;;;;;;;5093165;28;20474;-70
2022/04/06 05:10:05;;;;;;;4.20;3.80;;;;;;;;;;5093284;28;20486;-70
2022/04/06 05:12:32;;;;;;;5.50;4.10;;;;;;;;;;5093282;28;20458;-70
2022/04/06 05:14:59;;;;;;;5.63;4.50;;;;;;;;;;5092688;28;20463;-70
2022/04/06 05:17:26;;;;;;;4.43;3.70;;;;;;;;;;5093081;28;20450;-70
2022/04/06 05:19:53;;;;;;;6.67;4.30;;;;;;;;;;5093369;28;20453;-70
2022/04/06 05:22:22;;;;;;;6.00;5.40;;;;;;;;;;5092252;28;20544;-70
2022/04/06 05:24:49;;;;;;;7.73;5.63;;;;;;;;;;5092850;28;20959;-70
2022/04/06 05:27:16;;;;;;;4.63;3.30;;;;;;;;;;5093019;28;20463;-70
2022/04/06 05:29:43;;;;;;;3.47;3.00;;;;;;;;;;5093029;28;20470;-70
2022/04/06 05:32:10;;;;;;;3.33;2.57;;;;;;;;;;5093057;28;20446;-70
2022/04/06 05:34:37;;;;;;;3.90;2.47;;;;;;;;;;5092906;28;20454;-70
2022/04/06 05:37:05;;;;;;;2.60;2.10;;;;;;;;;;5093155;28;20443;-70
2022/04/06 05:39:33;;;;;;;2.67;2.47;;;;;;;;;;5092786;28;20473;-70
2022/04/06 05:42:01;;;;;;;3.10;2.50;;;;;;;;;;5092778;28;20443;-73
2022/04/06 05:44:28;;;;;;;3.43;2.30;;;;;;;;;;5092826;28;20823;-70
2022/04/06 05:46:55;;;;;;;3.90;2.90;;;;;;;;;;5093112;28;20450;-70
2022/04/06 05:49:22;;;;;;;5.53;4.00;;;;;;;;;;5092703;28;20493;-70
2022/04/06 05:51:50;;;;;;;4.70;3.37;;;;;;;;;;5092595;28;20455;-70
2022/04/06 05:54:17;;;;;;;4.30;2.77;;;;;;;;;;5092588;28;20447;-70
2022/04/06 05:56:45;;;;;;;4.27;3.13;;;;;;;;;;5092566;28;20451;-70
2022/04/06 05:59:12;;;;;;;3.83;2.67;;;;;;;;;;5093000;28;20963;-70
2022/04/06 06:01:39;;;;;;;5.40;3.80;;;;;;;;;;5092973;28;20964;-70
2022/04/06 06:04:06;;;;;;;4.93;3.43;;;;;;;;;;5095567;28;20947;-70
2022/04/06 06:06:35;;;;;;;5.17;2.67;;;;;;;;;;5096801;28;20971;-70
2022/04/06 06:09:02;;;;;;;3.33;2.60;;;;;;;;;;5096432;28;20494;-70
2022/04/06 06:11:29;;;;;;;3.80;3.07;;;;;;;;;;5096619;28;20450;-71
2022/04/06 06:13:58;;;;;;;3.57;3.00;;;;;;;;;;5096377;28;20459;-70
2022/04/06 06:16:25;;;;;;;3.57;2.53;;;;;;;;;;5096316;28;20450;-70
2022/04/06 06:18:52;;;;;;;3.30;2.57;;;;;;;;;;5096363;28;20466;-70
2022/04/06 06:21:19;;;;;;;2.77;2.50;;;;;;;;;;5096322;28;20458;-71
2022/04/06 06:23:46;;;;;;;2.50;2.07;;;;;;;;;;5096205;28;20815;-73
2022/04/06 06:26:13;;;;;;;3.40;1.80;;;;;;;;;;5096035;28;20461;-73
2022/04/06 06:28:42;;;;;;;3.50;2.43;;;;;;;;;;5096273;28;20986;-72
2022/04/06 06:31:11;;;;;;;2.40;1.93;;;;;;;;;;5095945;28;20865;-72
2022/04/06 06:33:38;;;;;;;2.63;1.90;;;;;;;;;;5096239;28;20458;-72
2022/04/06 06:36:05;;;;;;;3.10;2.00;;;;;;;;;;5095718;28;20458;-71
2022/04/06 06:38:32;;;;;;;2.83;1.90;;;;;;;;;;5095979;28;20481;-72
2022/04/06 06:40:59;;;;;;;2.40;2.10;;;;;;;;;;5096051;28;20974;-72
2022/04/06 06:43:26;;;;;;;2.90;1.97;;;;;;;;;;5096121;28;20450;-72
2022/04/06 06:45:53;;;;;;;3.73;2.10;;;;;;;;;;5095822;28;20454;-71
2022/04/06 06:48:22;;;;;;;2.73;2.20;;;;;;;;;;5095821;28;20494;-72
2022/04/06 06:50:49;;;;;;;3.30;1.73;;;;;;;;;;5095983;28;20459;-72
2022/04/06 06:53:16;;;;;;;2.23;1.60;;;;;;;;;;5095326;28;20462;-72
2022/04/06 06:55:43;;;;;;;2.57;2.10;;;;;;;;;;5095680;28;20451;-72
2022/04/06 06:58:10;;;;;;;2.30;1.90;;;;;;;;;;5095484;28;20478;-72
2022/04/06 07:00:37;;;;;;;3.00;2.43;;;;;;;;;;5095816;28;20446;-74
2022/04/06 07:03:04;;;;;;;2.30;1.60;;;;;;;;;;5095562;28;20455;-74
2022/04/06 07:05:33;;;;;;;2.73;1.93;;;;;;;;;;5095303;28;20462;-74
2022/04/06 07:08:01;;;;;;;2.07;1.70;;;;;;;;;;5094757;28;20517;-74
2022/04/06 07:10:29;;;;;;;3.30;2.40;;;;;;;;;;5095445;28;20450;-74
2022/04/06 07:12:56;;;;;;;2.40;2.10;;;;;;;;;;5094957;28;20446;-75
2022/04/06 07:15:23;;;;;;;3.00;2.47;;;;;;;;;;5094967;28;20458;-72
2022/04/06 07:17:54;;;;;;;3.33;2.63;;;;;;;;;;5095248;28;20474;-73
2022/04/06 07:20:21;;;;;;;2.77;1.87;;;;;;;;;;5095593;28;20453;-73
2022/04/06 07:22:50;;;;;;;2.40;1.80;;;;;;;;;;5095100;28;20455;-73
2022/04/06 07:25:17;;;;;;;2.63;1.50;;;;;;;;;;5094785;28;20508;-73
2022/04/06 07:27:45;;;;;;;2.20;1.70;;;;;;;;;;5095030;28;20462;-73
2022/04/06 07:30:13;;;;;;;1.83;1.20;;;;;;;;;;5095220;28;20462;-73
2022/04/06 07:32:40;;;;;;;3.50;2.80;;;;;;;;;;5094917;28;20447;-73
2022/04/06 07:35:09;;;;;;;3.40;2.53;;;;;;;;;;5094703;28;20462;-73
2022/04/06 07:37:36;;;;;;;3.10;2.70;;;;;;;;;;5094886;28;20458;-73
2022/04/06 07:40:07;;;;;;;2.40;2.07;;;;;;;;;;5094804;28;20450;-73
2022/04/06 07:42:35;;;;;;;2.00;1.70;;;;;;;;;;5094510;28;20545;-73
2022/04/06 07:45:02;;;;;;;3.30;1.70;;;;;;;;;;5094511;28;20473;-73
2022/04/06 07:47:30;;;;;;;1.93;1.53;;;;;;;;;;5094543;28;20458;-73
2022/04/06 07:49:57;;;;;;;3.77;1.57;;;;;;;;;;5094549;28;20482;-73
2022/04/06 07:52:25;;;;;;;2.33;1.93;;;;;;;;;;5094218;28;20446;-73
2022/04/06 07:54:52;;;;;;;2.30;1.80;;;;;;;;;;5094259;28;20474;-73
2022/04/06 07:57:22;;;;;;;2.23;1.43;;;;;;;;;;5094663;28;20454;-73
2022/04/06 07:59:49;;;;;;;1.90;1.50;;;;;;;;;;5094617;28;20527;-73
2022/04/06 08:02:16;;;;;;;1.40;1.30;;;;;;;;;;5094562;28;20455;-73
2022/04/06 08:04:43;;;;;;;2.00;1.50;;;;;;;;;;5094191;28;20457;-73
2022/04/06 08:07:10;;;;;;;2.10;1.73;;;;;;;;;;5094197;28;20449;-73
2022/04/06 08:09:38;;;;;;;3.13;2.47;;;;;;;;;;5094483;28;20585;-73
2022/04/06 08:12:05;;;;;;;4.37;2.70;;;;;;;;;;5094383;28;20466;-73
2022/04/06 08:14:34;;;;;;;2.90;2.40;;;;;;;;;;5094181;28;20466;-73
2022/04/06 08:17:01;;;;;;;2.10;1.60;;;;;;;;;;5094117;28;20461;-73
2022/04/06 08:19:28;;;;;;;2.27;1.97;;;;;;;;;;5094252;28;20462;-73
2022/04/06 08:21:56;;;;;;;3.00;1.87;;;;;;;;;;5093850;28;20529;-72
2022/04/06 08:24:23;;;;;;;9.00;1.50;;;;;;;;;;5094021;28;20459;-72
2022/04/06 08:26:50;;;;;;;2.37;2.10;;;;;;;;;;5093281;28;20454;-72
2022/04/06 08:29:17;;;;;;;3.90;2.00;;;;;;;;;;5092103;28;21006;-72
2022/04/06 08:31:45;;;;;;;3.10;2.23;;;;;;;;;;5093245;28;20811;-72
2022/04/06 08:34:13;;;;;;;2.87;2.00;;;;;;;;;;5093318;28;20447;-72
2022/04/06 08:36:41;;;;;;;2.70;2.13;;;;;;;;;;5093696;28;20894;-72
2022/04/06 08:39:09;;;;;;;3.37;2.17;;;;;;;;;;5093371;28;20551;-72
2022/04/06 08:41:36;;;;;;;2.53;1.83;;;;;;;;;;5093675;28;20822;-73
2022/04/06 08:44:03;;;;;;;2.40;1.93;;;;;;;;;;5093206;28;20819;-72
2022/04/06 08:46:34;;;;;;;2.10;1.80;;;;;;;;;;5093462;28;21062;-72
2022/04/06 08:49:03;;;;;;;2.57;2.00;;;;;;;;;;5093116;28;20514;-72
2022/04/06 08:51:32;;;;;;;2.40;2.00;;;;;;;;;;5093436;28;20451;-72
2022/04/06 08:53:59;;;;;;;3.80;1.80;;;;;;;;;;5092606;28;20458;-72
2022/04/06 08:56:26;;;;;;;2.30;2.00;;;;;;;;;;5093422;28;20820;-72
2022/04/06 08:58:54;;;;;;;2.33;1.80;;;;;;;;;;5093199;28;20529;-72
2022/04/06 09:01:21;;;;;;;2.13;1.70;;;;;;;;;;5092659;28;20940;-72
2022/04/06 09:03:49;;;;;;;2.57;2.37;;;;;;;;;;5092996;28;20446;-72
2022/04/06 09:06:19;;;;;;;2.10;1.80;;;;;;;;;;5093322;28;20454;-73
2022/04/06 09:08:48;;;;;;;4.50;1.70;;;;;;;;;;5092709;28;20483;-73
2022/04/06 09:11:16;;;;;;;1.87;1.63;;;;;;;;;;5093346;28;20465;-72
2022/04/06 09:13:43;;;;;;;2.23;1.70;;;;;;;;;;5091593;28;20446;-72
2022/04/06 09:16:11;;;;;;;4.63;1.87;;;;;;;;;;5092580;28;20469;-73
2022/04/06 09:18:40;;;;;;;2.10;1.73;;;;;;;;;;5093101;28;20463;-73
2022/04/06 09:21:07;;;;;;;2.60;1.93;;;;;;;;;;5092905;28;20829;-73
2022/04/06 09:23:35;;;;;;;2.10;1.90;;;;;;;;;;5092785;28;20470;-72
2022/04/06 09:26:04;;;;;;;2.30;1.83;;;;;;;;;;5092930;28;20451;-73
2022/04/06 09:28:31;;;;;;;2.80;2.20;;;;;;;;;;5092936;28;21049;-73
2022/04/06 09:30:58;;;;;;;2.50;2.00;;;;;;;;;;5093076;28;20947;-73
2022/04/06 09:33:29;;;;;;;2.20;2.00;;;;;;;;;;5075647;28;20468;-72
2022/04/06 09:35:58;;;;;;;2.20;1.80;;;;;;;;;;5083574;28;20462;-73
2022/04/06 09:38:27;;;;;;;2.60;2.40;;;;;;;;;;5095355;28;20535;-72
2022/04/06 09:41:01;;;;;;;2.30;2.10;;;;;;;;;;5095956;28;20447;-72
2022/04/06 09:43:29;;;;;;;2.60;2.07;;;;;;;;;;5095733;28;20461;-72
2022/04/06 09:48:55;;;;;;;6.00;5.33;;;;;;;;;;5095553;28;20441;-73
2022/04/06 09:51:23;;;;;;;1.90;1.60;;;;;;;;;;5095512;28;20966;-72
2022/04/06 09:53:50;;;;;;;1.90;1.57;;;;;;;;;;5095100;28;20447;-73
2022/04/06 09:56:19;;;;;;;1.97;1.77;;;;;;;;;;5095462;28;20457;-73
2022/04/06 09:58:46;;;;;;;2.20;1.70;;;;;;;;;;5095049;28;21025;-73
2022/04/06 10:01:14;;;;;;;2.83;2.00;;;;;;;;;;5095129;28;20461;-73
2022/04/06 10:03:42;;;;;;;2.20;1.80;;;;;;;;;;5095200;28;21159;-73
2022/04/06 10:06:10;;;;;;;2.90;1.77;;;;;;;;;;5094878;28;20470;-73
2022/04/06 10:08:39;;;;;;;2.50;2.30;;;;;;;;;;5095108;28;20466;-72
2022/04/06 10:11:06;;;;;;;2.13;1.73;;;;;;;;;;5095084;28;20447;-73
2022/04/06 10:13:35;;;;;;;2.83;2.47;;;;;;;;;;5095103;28;20438;-73
2022/04/06 10:16:02;;;;;;;2.67;2.30;;;;;;;;;;5094988;28;20457;-73
2022/04/06 10:18:32;;;;;;;3.00;2.70;;;;;;;;;;5095326;28;20473;-73
2022/04/06 10:21:02;;;;;;;2.63;2.40;;;;;;;;;;5096089;28;20465;-73
2022/04/06 10:23:37;;;;;;;2.57;2.10;;;;;;;;;;5094869;28;20461;-72
2022/04/06 10:26:08;;;;;;;3.00;2.17;;;;;;;;;;5095867;28;20456;-73
2022/04/06 10:28:38;;;;;;;2.40;2.20;;;;;;;;;;5096223;28;20462;-73
2022/04/06 10:31:15;;;;;;;3.70;2.50;;;;;;;;;;5096079;28;21084;-73
2022/04/06 10:33:42;;;;;;;1.97;1.77;;;;;;;;;;5096070;28;20931;-73
2022/04/06 10:36:17;;;;;;;2.37;2.17;;;;;;;;;;5095954;28;20479;-73
2022/04/06 10:38:59;;;;;;;4.00;2.40;;;;;;;;;;5096330;28;20466;-73
2022/04/06 10:41:26;;;;;;;5.33;2.57;;;;;;;;;;5095884;28;20457;-73
2022/04/06 10:43:55;;;;;;;3.70;2.30;;;;;;;;;;5095589;28;20458;-73
2022/04/06 10:46:35;;;;;;;2.83;2.00;;;;;;;;;;5096159;28;20541;-73
2022/04/06 10:49:15;;;;;;;2.93;2.00;;;;;;;;;;5095012;28;20466;-73
2022/04/06 10:51:43;;;;;;;3.67;1.77;;;;;;;;;;5092682;28;20463;-73
2022/04/06 10:54:34;;;;;;;1.97;1.77;;;;;;;;;;5093508;28;20920;-73
2022/04/06 10:57:01;;;;;;;1.80;1.57;;;;;;;;;;5094156;28;20463;-73
2022/04/06 10:59:30;;;;;;;2.10;1.70;;;;;;;;;;5094005;28;20477;-73
2022/04/06 11:02:12;;;;;;;1.70;1.40;;;;;;;;;;5094086;28;20944;-73
2022/04/06 11:04:40;;;;;;;2.17;1.77;;;;;;;;;;5094124;28;20449;-73
2022/04/06 11:07:08;;;;;;;1.93;1.70;;;;;;;;;;5093895;28;20885;-73
2022/04/06 11:12:21;;;;;;;2.20;1.80;;;;;;;;;;5075285;28;20431;-73
2022/04/06 11:14:50;;;;;;;2.70;1.80;;;;;;;;;;5074959;28;20448;-73
2022/04/06 11:17:41;;;;;;;2.30;1.97;;;;;;;;;;5075102;28;20940;-73
2022/04/06 11:20:09;;;;;;;3.37;2.23;;;;;;;;;;5075082;28;20897;-73
2022/04/06 11:22:38;;;;;;;2.40;2.20;;;;;;;;;;5074811;28;20455;-73
2022/04/06 11:25:07;;;;;;;1.90;1.60;;;;;;;;;;5074615;28;20462;-73
2022/04/06 11:27:35;;;;;;;2.30;2.00;;;;;;;;;;5074797;28;20447;-73
2022/04/06 11:30:04;;;;;;;2.47;2.27;;;;;;;;;;5074904;28;21022;-73
2022/04/06 11:32:32;;;;;;;3.57;3.27;;;;;;;;;;5074945;28;20561;-73
2022/04/06 11:35:01;;;;;;;1.97;1.60;;;;;;;;;;5074533;28;20460;-73
2022/04/06 11:37:28;;;;;;;1.93;1.50;;;;;;;;;;5074762;28;20484;-73
2022/04/06 11:39:59;;;;;;;2.20;1.80;;;;;;;;;;5074678;28;20498;-73
2022/04/06 11:42:26;;;;;;;1.70;1.43;;;;;;;;;;5074578;28;20447;-73
2022/04/06 11:44:54;;;;;;;3.30;1.87;;;;;;;;;;5074421;28;20967;-73
2022/04/06 11:47:32;;;;;;;2.27;1.53;;;;;;;;;;5074700;28;20505;-73
2022/04/06 11:50:00;;;;;;;2.67;1.70;;;;;;;;;;5074481;28;20498;-73
2022/04/06 11:52:27;;;;;;;1.57;1.40;;;;;;;;;;5073995;28;20448;-73
2022/04/06 11:54:55;;;;;;;2.10;1.70;;;;;;;;;;5073705;28;20466;-74
2022/04/06 11:57:22;;;;;;;1.80;1.50;;;;;;;;;;5074467;28;20467;-73
2022/04/06 11:59:53;;;;;;;1.97;1.60;;;;;;;;;;5073793;28;20472;-73
2022/04/06 12:02:20;;;;;;;2.73;1.80;;;;;;;;;;5073783;28;20452;-73
2022/04/06 12:04:59;;;;;;;2.47;1.67;;;;;;;;;;5074087;28;20452;-73
2022/04/06 12:07:26;;;;;;;2.03;1.60;;;;;;;;;;5074276;28;20466;-73
2022/04/06 12:09:54;;;;;;;1.50;1.33;;;;;;;;;;5073968;28;20494;-73
2022/04/06 12:12:23;;;;;;;2.17;1.60;;;;;;;;;;5074100;28;20494;-73
2022/04/06 12:14:51;;;;;;;2.33;1.30;;;;;;;;;;5073699;28;20547;-73
2022/04/06 12:17:18;;;;;;;2.30;1.70;;;;;;;;;;5073892;28;20452;-73
2022/04/06 12:19:45;;;;;;;1.70;1.33;;;;;;;;;;5073978;28;20472;-73
2022/04/06 12:22:14;;;;;;;2.43;1.60;;;;;;;;;;5073812;28;20463;-73
2022/04/06 12:24:43;;;;;;;2.63;1.77;;;;;;;;;;5073727;28;20443;-73
2022/04/06 12:27:10;;;;;;;1.97;1.73;;;;;;;;;;5073725;28;20955;-73
2022/04/06 12:29:39;;;;;;;1.60;1.40;;;;;;;;;;5073549;28;20874;-73
2022/04/06 12:32:08;;;;;;;1.80;1.50;;;;;;;;;;5073447;28;20546;-73
2022/04/06 12:34:36;;;;;;;3.17;1.93;;;;;;;;;;5073323;28;20513;-73
2022/04/06 12:37:29;;;;;;;2.30;1.70;;;;;;;;;;5073506;28;20470;-73
2022/04/06 12:39:54;;;;;;;2.33;1.70;;;;;;;;;;5073204;28;20464;-73
2022/04/06 12:42:22;;;;;;;41.73;15.20;;;;;;;;;;5073462;28;20455;-73
2022/04/06 12:44:56;;;;;;;46.63;15.30;;;;;;;;;;5073194;28;20447;-73
2022/04/06 12:47:24;;;;;;;5.00;2.93;;;;;;;;;;5073520;28;20792;-73
2022/04/06 12:49:51;;;;;;;1.93;1.73;;;;;;;;;;5073265;28;20483;-73
2022/04/06 12:52:19;;;;;;;3.63;2.60;;;;;;;;;;5073178;28;20956;-73
2022/04/06 12:54:49;;;;;;;2.07;1.80;;;;;;;;;;5072820;28;20466;-73
2022/04/06 12:57:19;;;;;;;2.53;1.67;;;;;;;;;;5073287;28;20452;-73
2022/04/06 12:59:47;;;;;;;7.20;1.83;;;;;;;;;;5073433;28;20811;-72
2022/04/06 13:02:25;;;;;;;3.07;1.90;;;;;;;;;;5073163;28;20844;-72
2022/04/06 13:04:53;;;;;;;3.03;1.50;;;;;;;;;;5072964;28;20452;-73
2022/04/06 13:07:20;;;;;;;7.20;2.10;;;;;;;;;;5073150;28;20459;-73
2022/04/06 13:09:48;;;;;;;2.90;1.63;;;;;;;;;;5072989;28;20467;-73
2022/04/06 13:12:15;;;;;;;2.60;1.67;;;;;;;;;;5072782;28;20455;-73
2022/04/06 13:14:44;;;;;;;1.73;1.43;;;;;;;;;;5072903;28;20817;-74
2022/04/06 13:17:11;;;;;;;3.50;1.30;;;;;;;;;;5072972;28;20447;-74
2022/04/06 13:19:38;;;;;;;1.90;1.30;;;;;;;;;;5072900;28;20494;-74
2022/04/06 13:22:05;;;;;;;1.60;1.50;;;;;;;;;;5072727;28;20470;-74
2022/04/06 13:24:33;;;;;;;2.40;1.70;;;;;;;;;;5072868;28;20872;-74
2022/04/06 13:27:01;;;;;;;1.37;1.10;;;;;;;;;;5072927;28;20452;-74
2022/04/06 13:29:28;;;;;;;2.10;1.90;;;;;;;;;;5072894;28;21050;-74
2022/04/06 13:31:56;;;;;;;1.90;1.33;;;;;;;;;;5072716;28;20840;-73
2022/04/06 13:34:23;;;;;;;2.03;1.60;;;;;;;;;;5072754;28;20451;-73
2022/04/06 13:36:51;;;;;;;2.70;1.93;;;;;;;;;;5072896;28;20460;-74
2022/04/06 13:39:18;;;;;;;1.70;1.40;;;;;;;;;;5072671;28;20471;-74
2022/04/06 13:41:48;;;;;;;1.80;1.33;;;;;;;;;;5072807;28;20447;-74
2022/04/06 13:44:18;;;;;;;9.53;1.63;;;;;;;;;;5072432;28;20455;-74
2022/04/06 13:46:45;;;;;;;3.10;1.30;;;;;;;;;;5072783;28;20456;-74
2022/04/06 13:49:14;;;;;;;4.23;1.50;;;;;;;;;;5072608;28;20479;-73
2022/04/06 13:51:41;;;;;;;2.70;1.57;;;;;;;;;;5072908;28;20793;-74
2022/04/06 13:54:08;;;;;;;1.67;1.30;;;;;;;;;;5072144;28;20460;-74
2022/04/06 13:56:35;;;;;;;2.10;1.17;;;;;;;;;;5072630;28;20463;-74
2022/04/06 13:59:02;;;;;;;4.00;2.77;;;;;;;;;;5072685;28;20987;-74
2022/04/06 14:01:29;;;;;;;2.10;1.50;;;;;;;;;;5072916;28;20475;-74
2022/04/06 14:03:56;;;;;;;2.90;1.57;;;;;;;;;;5072507;28;20460;-74
2022/04/06 14:06:25;;;;;;;3.83;1.50;;;;;;;;;;5072477;28;20460;-74
2022/04/06 14:08:52;;;;;;;1.87;1.53;;;;;;;;;;5072476;28;20495;-73
2022/04/06 14:11:19;;;;;;;1.90;1.60;;;;;;;;;;5072461;28;20487;-73
2022/04/06 14:13:46;;;;;;;6.10;1.30;;;;;;;;;;5072224;28;20811;-74
2022/04/06 14:16:14;;;;;;;2.77;1.87;;;;;;;;;;5072313;28;20460;-74
2022/04/06 14:18:42;;;;;;;1.83;1.53;;;;;;;;;;5072411;28;20472;-73
2022/04/06 14:21:09;;;;;;;1.70;1.50;;;;;;;;;;5072243;28;20459;-74
2022/04/06 14:23:38;;;;;;;2.40;1.73;;;;;;;;;;5072822;28;20948;-74
2022/04/06 14:26:06;;;;;;;3.47;1.83;;;;;;;;;;5075838;28;20452;-73
2022/04/06 14:28:34;;;;;;;2.60;2.07;;;;;;;;;;5075769;28;20540;-74
2022/04/06 14:31:01;;;;;;;1.90;1.70;;;;;;;;;;5075975;28;20827;-74
2022/04/06 14:33:28;;;;;;;1.80;1.50;;;;;;;;;;5075750;28;20455;-73
2022/04/06 14:35:55;;;;;;;2.33;1.40;;;;;;;;;;5075921;28;20459;-74
2022/04/06 14:38:22;;;;;;;1.80;1.57;;;;;;;;;;5075875;28;20836;-73
2022/04/06 14:40:51;;;;;;;2.73;1.60;;;;;;;;;;5075830;28;20447;-73
2022/04/06 14:43:19;;;;;;;1.80;1.57;;;;;;;;;;5075660;28;20487;-74
2022/04/06 14:45:46;;;;;;;1.70;1.30;;;;;;;;;;5075531;28;20447;-73
2022/04/06 14:48:15;;;;;;;2.27;1.57;;;;;;;;;;5075579;28;20478;-74
2022/04/06 14:50:43;;;;;;;1.93;1.40;;;;;;;;;;5075867;28;21041;-74
2022/04/06 14:53:10;;;;;;;1.80;1.33;;;;;;;;;;5074920;28;20452;-73
2022/04/06 14:55:38;;;;;;;2.30;1.80;;;;;;;;;;5075236;28;20462;-73
2022/04/06 14:58:07;;;;;;;3.20;1.70;;;;;;;;;;5075268;28;20475;-74